Time;durP1;ratioP1;P1;durP2;ratioP2;P2;SDS_P1;SDS_P2;PMS_P1;PMS_P2;Temp;Humidity;BMP_temperature;BMP_pressure;BME280_temperature;BME280_humidity;BME280_pressure;Samples;Min_cycle;Max_cycle;Signal;HPM_P1;HPM_P2
2023/05/16 00:00:19;;;;;;;9.48;2.95;;;;;;;19.86;36.91;100349.69;1738518;82;21277;-79
2023/05/16 00:03:25;;;;;;;6.37;3.58;;;;;;;19.84;36.91;100347.67;1738289;82;21226;-79
2023/05/16 00:06:32;;;;;;;11.40;3.20;;;;;;;19.84;36.90;100351.30;1739178;82;21195;-80
2023/05/16 00:09:38;;;;;;;16.70;3.95;;;;;;;19.76;37.00;100348.87;1737827;82;21195;-79
2023/05/16 00:12:43;;;;;;;7.72;3.40;;;;;;;19.89;36.83;100350.04;1738060;82;21203;-79
2023/05/16 00:15:50;;;;;;;13.00;3.00;;;;;;;19.85;36.91;100343.81;1739287;82;21191;-79
2023/05/16 00:18:59;;;;;;;10.65;3.20;;;;;;;19.85;36.82;100339.10;1738088;82;21721;-79
2023/05/16 00:22:06;;;;;;;9.20;3.47;;;;;;;19.76;36.98;100348.87;1739508;82;21552;-79
2023/05/16 00:25:12;;;;;;;15.63;4.00;;;;;;;19.82;36.83;100340.14;1739276;82;22001;-79
2023/05/16 00:28:17;;;;;;;13.62;3.30;;;;;;;19.86;36.63;100338.05;1738905;82;21203;-79
2023/05/16 00:31:23;;;;;;;12.68;3.70;;;;;;;20.05;36.17;100343.53;1739199;82;21818;-79
2023/05/16 00:34:29;;;;;;;13.98;3.20;;;;;;;20.10;36.15;100351.44;1738214;82;21373;-79
2023/05/16 00:37:37;;;;;;;10.43;3.05;;;;;;;20.02;36.16;100347.61;1739262;82;21203;-79
2023/05/16 00:40:42;;;;;;;18.77;4.53;;;;;;;19.94;36.30;100349.33;1725006;81;21234;-79
2023/05/16 00:43:48;;;;;;;8.15;3.35;;;;;;;20.11;36.10;100362.00;1703378;84;21197;-79
2023/05/16 00:46:54;;;;;;;10.08;3.47;;;;;;;20.02;36.25;100353.16;1714808;83;21183;-79
2023/05/16 00:50:00;;;;;;;13.10;3.40;;;;;;;19.97;36.32;100354.42;1701878;84;21902;-79
2023/05/16 00:53:05;;;;;;;11.00;3.27;;;;;;;19.92;36.38;100357.06;1714682;83;21191;-79
2023/05/16 00:56:12;;;;;;;8.25;3.70;;;;;;;19.84;36.58;100351.84;1703020;84;21237;-79
2023/05/16 00:59:18;;;;;;;10.68;3.95;;;;;;;19.95;36.43;100351.05;1714052;83;21226;-79
2023/05/16 01:02:27;;;;;;;15.15;4.70;;;;;;;20.07;36.25;100348.29;1703242;84;21187;-79
2023/05/16 01:05:32;;;;;;;12.80;4.00;;;;;;;20.08;36.09;100346.66;1714695;83;21175;-79
2023/05/16 01:08:37;;;;;;;9.88;3.72;;;;;;;20.12;35.99;100347.03;1703149;84;21772;-78
2023/05/16 01:12:37;;;;;;;5.97;3.42;;;;;;;20.11;36.00;100343.41;1714528;83;21186;-79
2023/05/16 01:15:52;;;;;;;8.55;3.33;;;;;;;19.70;36.75;100339.24;1703159;84;21197;-79
2023/05/16 01:19:08;;;;;;;8.85;3.52;;;;;;;19.87;36.48;100337.50;1714026;83;21223;-79
2023/05/16 01:22:29;;;;;;;16.48;3.62;;;;;;;19.75;36.70;100336.60;1694512;83;22454;-80
2023/05/16 01:26:04;;;;;;;13.13;3.52;;;;;;;20.00;36.31;100335.91;1703296;84;21713;-80
2023/05/16 01:29:10;;;;;;;21.15;3.87;;;;;;;20.00;36.32;100337.30;1701556;83;21246;-80
2023/05/16 01:32:16;;;;;;;8.95;3.62;;;;;;;20.33;35.81;100340.92;1714678;83;21243;-80
2023/05/16 01:35:23;;;;;;;8.30;4.40;;;;;;;20.42;35.60;100339.48;1713455;83;21274;-80
2023/05/16 01:38:33;;;;;;;10.88;4.42;;;;;;;20.53;35.45;100338.37;1714589;83;21179;-80
2023/05/16 01:41:55;;;;;;;10.48;5.05;;;;;;;20.32;35.60;100336.42;1711064;83;21832;-80
2023/05/16 01:45:31;;;;;;;10.18;4.47;;;;;;;20.39;35.55;100339.11;1709316;84;21195;-80
2023/05/16 01:48:42;;;;;;;10.53;4.95;;;;;;;20.53;35.38;100339.21;1700889;84;21185;-79
2023/05/16 01:51:47;;;;;;;11.25;4.60;;;;;;;20.52;35.32;100336.14;1709451;84;21195;-79
2023/05/16 01:54:53;;;;;;;7.20;4.42;;;;;;;20.04;36.06;100338.52;1709302;84;21195;-79
2023/05/16 01:57:58;;;;;;;9.20;4.87;;;;;;;19.93;36.21;100342.09;1701011;84;21240;-79
2023/05/16 02:01:04;;;;;;;12.43;4.95;;;;;;;20.08;35.95;100341.09;1708000;84;21774;-79
2023/05/16 02:03:57;;;;;;;19.07;5.05;;;;;;;20.20;35.88;100337.52;1709243;84;21239;-79
2023/05/16 02:07:04;;;;;;;9.53;4.95;;;;;;;20.09;36.08;100338.66;1676381;84;21205;-79
2023/05/16 02:10:09;;;;;;;18.37;4.45;;;;;;;20.23;35.94;100339.80;1708591;84;21727;-79
2023/05/16 02:13:15;;;;;;;13.15;4.58;;;;;;;20.29;35.84;100338.86;1709253;84;21789;-79
2023/05/16 02:16:19;;;;;;;10.63;5.00;;;;;;;20.33;35.79;100341.47;1700886;84;21760;-79
2023/05/16 02:19:25;;;;;;;9.60;4.35;;;;;;;20.31;35.82;100339.45;1709088;84;21231;-79
2023/05/16 02:22:31;;;;;;;10.38;5.00;;;;;;;20.25;35.90;100341.81;1709285;84;21305;-79
2023/05/16 02:25:38;;;;;;;12.35;5.17;;;;;;;20.26;35.81;100336.01;1700937;84;21213;-78
2023/05/16 02:28:48;;;;;;;12.47;5.22;;;;;;;20.52;35.06;100345.86;1700801;84;21208;-79
2023/05/16 02:31:53;;;;;;;13.93;5.08;;;;;;;20.68;34.92;100339.56;1709406;84;21192;-79
2023/05/16 02:35:00;;;;;;;10.05;4.78;;;;;;;20.87;34.72;100343.61;1709030;84;21556;-79
2023/05/16 02:38:06;;;;;;;8.68;5.17;;;;;;;21.16;34.16;100340.35;1700940;84;21240;-79
2023/05/16 02:41:11;;;;;;;31.73;13.93;;;;;;;21.34;33.79;100340.22;1708298;84;21287;-79
2023/05/16 02:44:17;;;;;;;39.80;12.10;;;;;;;21.51;33.50;100342.23;1715195;83;22661;-79
2023/05/16 02:47:23;;;;;;;18.42;7.35;;;;;;;21.64;33.26;100343.31;1744434;82;21199;-79
2023/05/16 02:50:30;;;;;;;25.23;6.10;;;;;;;21.46;33.41;100348.55;1714519;83;21409;-79
2023/05/16 02:53:35;;;;;;;9.68;5.28;;;;;;;21.56;33.28;100343.17;1744442;82;21193;-79
2023/05/16 02:56:43;;;;;;;21.37;5.75;;;;;;;21.32;33.59;100344.36;1715035;83;21796;-79
2023/05/16 02:59:50;;;;;;;11.90;5.03;;;;;;;21.39;33.65;100352.00;1744256;82;21225;-79
2023/05/16 03:02:56;;;;;;;17.02;4.95;;;;;;;21.36;33.76;100349.70;1715250;83;21185;-79
2023/05/16 03:06:05;;;;;;;16.87;5.47;;;;;;;21.29;33.85;100348.42;1743804;82;21769;-79
2023/05/16 03:09:10;;;;;;;13.80;5.45;;;;;;;21.19;34.01;100350.45;1715271;83;21759;-79
2023/05/16 03:12:16;;;;;;;26.70;5.67;;;;;;;21.32;33.87;100348.53;1744498;82;22493;-79
2023/05/16 03:15:22;;;;;;;13.70;5.53;;;;;;;21.28;33.81;100351.47;1715220;83;21496;-79
2023/05/16 03:18:27;;;;;;;15.68;5.28;;;;;;;21.44;33.65;100352.10;1743042;82;21194;-79
2023/05/16 03:21:35;;;;;;;15.80;4.62;;;;;;;21.73;33.28;100346.55;1713996;83;21856;-78
2023/05/16 03:24:39;;;;;;;7.33;4.62;;;;;;;21.74;33.47;100352.41;1744457;82;21195;-79
2023/05/16 03:27:45;;;;;;;15.93;6.08;;;;;;;21.91;33.58;100347.73;1714992;83;21249;-79
2023/05/16 03:30:51;;;;;;;14.50;6.20;;;;;;;22.16;33.39;100351.03;1743979;82;21309;-79
2023/05/16 03:33:56;;;;;;;13.53;5.28;;;;;;;22.30;33.42;100352.06;1715159;83;21200;-79
2023/05/16 03:37:03;;;;;;;14.15;5.65;;;;;;;22.45;33.29;100353.19;1743702;82;21335;-79
2023/05/16 03:40:08;;;;;;;12.25;5.97;;;;;;;22.68;32.94;100354.95;1713639;83;21752;-79
2023/05/16 03:43:15;;;;;;;11.88;5.10;;;;;;;22.93;32.77;100359.25;1743356;82;21265;-79
2023/05/16 03:46:21;;;;;;;14.85;5.70;;;;;;;23.00;32.71;100361.28;1715074;83;21752;-79
2023/05/16 03:49:27;;;;;;;12.20;5.60;;;;;;;23.34;32.30;100355.63;1720834;82;21198;-79
2023/05/16 03:52:32;;;;;;;15.40;6.03;;;;;;;23.44;32.54;100355.20;1713532;83;21224;-78
2023/05/16 03:55:38;;;;;;;18.73;6.25;;;;;;;23.57;32.71;100349.78;1744283;82;21793;-79
2023/05/16 03:58:45;;;;;;;16.20;6.03;;;;;;;23.67;32.88;100344.34;1715009;83;21240;-79
2023/05/16 04:01:51;;;;;;;19.55;5.78;;;;;;;23.82;33.06;100349.24;1743603;82;21746;-79
2023/05/16 04:04:56;;;;;;;25.88;6.30;;;;;;;23.98;32.49;100360.85;1714975;83;21200;-79
2023/05/16 04:08:02;;;;;;;20.43;6.37;;;;;;;24.16;32.49;100352.66;1742968;82;21214;-79
2023/05/16 04:11:08;;;;;;;17.98;7.05;;;;;;;24.37;32.77;100354.25;1714918;83;21177;-79
2023/05/16 04:14:14;;;;;;;30.62;7.22;;;;;;;24.40;32.38;100354.57;1743092;82;21519;-79
2023/05/16 04:17:20;;;;;;;16.90;7.58;;;;;;;24.46;32.38;100359.64;1715126;83;21756;-79
2023/05/16 04:20:25;;;;;;;30.30;8.40;;;;;;;24.74;31.96;100373.28;1744303;82;21242;-79
2023/05/16 04:23:30;;;;;;;20.52;7.92;;;;;;;24.87;31.51;100378.14;1713696;83;21751;-79
2023/05/16 04:26:36;;;;;;;24.85;8.20;;;;;;;24.97;31.88;100381.84;1742917;82;21217;-79
2023/05/16 04:29:42;;;;;;;24.37;7.55;;;;;;;25.29;31.32;100380.10;1714939;83;21193;-79
2023/05/16 04:32:47;;;;;;;25.08;8.08;;;;;;;25.48;30.93;100376.55;1743332;82;21187;-79
2023/05/16 04:35:53;;;;;;;15.28;6.85;;;;;;;25.64;30.55;100385.00;1715024;83;21189;-79
2023/05/16 04:38:58;;;;;;;21.33;8.33;;;;;;;25.84;30.69;100382.33;1743045;82;21249;-80
2023/05/16 04:42:06;;;;;;;25.52;7.47;;;;;;;26.00;30.33;100372.82;1713769;83;21205;-79
2023/05/16 04:45:13;;;;;;;23.52;7.92;;;;;;;26.08;29.90;100379.86;1742895;82;21948;-79
2023/05/16 04:48:18;;;;;;;18.85;8.25;;;;;;;26.00;30.70;100372.82;1715079;83;21799;-79
2023/05/16 04:51:25;;;;;;;19.50;8.28;;;;;;;26.36;29.69;100370.64;1744464;82;21207;-79
2023/05/16 04:54:31;;;;;;;20.95;6.50;;;;;;;26.29;29.51;100372.86;1715113;83;21220;-78
2023/05/16 04:57:36;;;;;;;18.45;7.08;;;;;;;26.50;28.92;100372.64;1744465;82;21756;-79
2023/05/16 05:00:42;;;;;;;18.67;6.35;;;;;;;26.53;28.83;100371.78;1714066;83;21795;-78
2023/05/16 05:03:48;;;;;;;23.42;6.62;;;;;;;26.73;28.97;100381.05;1744372;82;21206;-79
2023/05/16 05:06:55;;;;;;;20.50;6.53;;;;;;;26.70;28.59;100376.55;1715026;83;21201;-79
2023/05/16 05:10:01;;;;;;;22.98;6.92;;;;;;;26.92;28.28;100386.08;1743024;82;21202;-78
2023/05/16 05:13:06;;;;;;;17.65;6.20;;;;;;;26.99;27.87;100390.26;1713745;83;21193;-79
2023/05/16 05:16:13;;;;;;;18.23;6.65;;;;;;;27.14;27.69;100389.41;1741209;81;21181;-79
2023/05/16 05:19:19;;;;;;;14.70;6.00;;;;;;;27.39;27.34;100385.70;1732067;82;21206;-79
2023/05/16 05:22:25;;;;;;;22.30;5.72;;;;;;;27.54;27.71;100384.80;1709208;83;21233;-79
2023/05/16 05:25:38;;;;;;;13.62;5.92;;;;;;;27.64;27.71;100386.16;1731355;82;21173;-78
2023/05/16 05:28:43;;;;;;;13.62;5.60;;;;;;;27.97;25.67;100387.98;1716531;82;21205;-78
2023/05/16 05:31:52;;;;;;;17.35;5.10;;;;;;;27.91;25.71;100380.16;1741548;82;21183;-78
2023/05/16 05:34:58;;;;;;;10.55;5.25;;;;;;;28.04;25.99;100381.47;1726202;81;21446;-78
2023/05/16 05:38:04;;;;;;;12.30;4.87;;;;;;;28.20;25.69;100385.87;1742328;81;21240;-78
2023/05/16 05:41:10;;;;;;;14.53;4.33;;;;;;;28.18;25.21;100378.31;1688549;83;21320;-78
2023/05/16 05:44:17;;;;;;;10.75;4.37;;;;;;;27.83;25.36;100382.73;1731478;82;21166;-80
2023/05/16 05:47:26;;;;;;;13.28;4.42;;;;;;;27.75;25.38;100374.33;1753484;81;21177;-81
2023/05/16 05:50:32;;;;;;;11.30;4.47;;;;;;;27.93;24.33;100377.88;1707443;82;21200;-81
2023/05/16 05:53:37;;;;;;;13.62;4.00;;;;;;;27.60;25.46;100385.05;1691272;83;21280;-81
2023/05/16 05:56:42;;;;;;;9.95;4.37;;;;;;;28.07;24.69;100382.30;1759599;81;21205;-80
2023/05/16 05:59:49;;;;;;;25.15;4.83;;;;;;;28.54;23.93;100389.30;1762191;81;21199;-80
2023/05/16 06:02:56;;;;;;;14.90;4.08;;;;;;;28.62;24.57;100383.05;1725535;82;21210;-80
2023/05/16 06:06:01;;;;;;;12.90;4.22;;;;;;;28.89;23.92;100391.52;1733909;82;21759;-80
2023/05/16 06:09:07;;;;;;;5.35;3.20;;;;;;;28.88;23.97;100384.21;1732200;82;21181;-81
2023/05/16 06:12:12;;;;;;;11.83;3.70;;;;;;;28.94;24.79;100382.47;1752921;81;21196;-80
2023/05/16 06:15:18;;;;;;;5.83;2.90;;;;;;;29.02;23.45;100390.86;1756953;81;21153;-78
2023/05/16 06:18:24;;;;;;;6.70;3.40;;;;;;;28.96;24.01;100385.02;1756865;81;21167;-79
2023/05/16 06:21:29;;;;;;;8.35;3.10;;;;;;;29.08;23.54;100379.83;1762755;81;21177;-78
2023/05/16 06:24:36;;;;;;;11.15;3.08;;;;;;;29.26;22.89;100391.71;1762024;81;21181;-79
2023/05/16 06:27:43;;;;;;;8.45;3.40;;;;;;;29.23;23.04;100391.50;1763911;81;21201;-79
2023/05/16 06:30:50;;;;;;;11.97;3.40;;;;;;;29.29;23.64;100392.53;1760672;81;21158;-79
2023/05/16 06:33:56;;;;;;;7.97;3.15;;;;;;;29.43;23.29;100392.66;1758986;81;21201;-79
2023/05/16 06:37:02;;;;;;;12.18;3.40;;;;;;;29.36;23.69;100391.33;1734854;82;21817;-80
2023/05/16 06:40:08;;;;;;;14.40;3.17;;;;;;;29.39;23.67;100389.33;1721290;82;21219;-79
2023/05/16 06:43:14;;;;;;;12.60;3.10;;;;;;;29.65;24.09;100394.13;1734974;82;21197;-79
2023/05/16 06:46:21;;;;;;;14.80;4.25;;;;;;;29.76;23.06;100393.67;1719024;83;21374;-79
2023/05/16 06:49:27;;;;;;;5.30;2.90;;;;;;;29.78;23.50;100386.31;1729858;82;21177;-79
2023/05/16 06:52:33;;;;;;;9.88;3.17;;;;;;;29.88;23.30;100389.56;1723257;82;21350;-79
2023/05/16 06:55:39;;;;;;;13.75;3.02;;;;;;;29.96;23.22;100385.50;1785829;79;21215;-79
2023/05/16 06:58:45;;;;;;;9.10;3.33;;;;;;;30.20;23.61;100381.23;1790766;79;22301;-79
2023/05/16 07:01:51;;;;;;;11.28;3.15;;;;;;;30.29;23.54;100386.45;1794392;79;21756;-79
2023/05/16 07:04:56;;;;;;;8.43;2.85;;;;;;;30.49;23.02;100395.77;1722333;82;21264;-79
2023/05/16 07:08:02;;;;;;;6.70;3.37;;;;;;;30.51;23.39;100389.22;1796970;79;21165;-79
2023/05/16 07:11:07;;;;;;;6.80;2.85;;;;;;;30.61;22.77;100387.63;1788416;79;21171;-79
2023/05/16 07:14:13;;;;;;;8.30;2.58;;;;;;;30.85;22.88;100392.34;1789558;79;21197;-79
2023/05/16 07:17:22;;;;;;;6.97;2.70;;;;;;;30.27;23.41;100389.33;1785488;79;21178;-79
2023/05/16 07:20:32;;;;;;;8.48;2.92;;;;;;;30.89;22.68;100397.63;1781360;78;21173;-80
2023/05/16 07:23:38;;;;;;;7.50;2.80;;;;;;;30.71;22.63;100390.89;1782642;79;21795;-80
2023/05/16 07:26:45;;;;;;;11.50;2.80;;;;;;;30.94;22.16;100397.54;1787725;79;21152;-80
2023/05/16 07:29:50;;;;;;;4.78;2.50;;;;;;;30.84;22.49;100399.14;1783101;79;21200;-79
2023/05/16 07:32:57;;;;;;;15.63;2.90;;;;;;;30.98;22.50;100400.01;1737584;81;22427;-79
2023/05/16 07:36:03;;;;;;;5.85;2.52;;;;;;;31.02;21.87;100401.91;1758196;81;21138;-79
2023/05/16 07:39:10;;;;;;;8.30;2.70;;;;;;;31.04;22.29;100398.18;1788902;78;21180;-79
2023/05/16 07:42:15;;;;;;;6.45;2.83;;;;;;;31.01;23.53;100396.58;1788465;79;21285;-79
2023/05/16 07:45:21;;;;;;;11.15;2.77;;;;;;;30.91;22.85;100391.09;1769060;79;21229;-79
2023/05/16 07:48:28;;;;;;;11.70;2.67;;;;;;;31.56;22.63;100391.81;1793546;79;21241;-79
2023/05/16 07:51:35;;;;;;;5.60;2.27;;;;;;;30.64;23.74;100385.62;1797831;79;21232;-79
2023/05/16 07:54:41;;;;;;;7.37;2.52;;;;;;;30.47;23.42;100381.94;1795697;79;21176;-79
2023/05/16 07:57:48;;;;;;;6.03;2.58;;;;;;;30.58;23.54;100378.94;1791378;79;21177;-79
2023/05/16 08:00:53;;;;;;;10.95;2.15;;;;;;;30.71;23.41;100382.41;1733881;81;21209;-79
2023/05/16 08:04:00;;;;;;;6.83;2.42;;;;;;;30.79;22.54;100396.67;1793666;79;21201;-79
2023/05/16 08:07:06;;;;;;;6.65;2.10;;;;;;;30.73;22.60;100388.61;1787129;79;21149;-79
2023/05/16 08:10:12;;;;;;;4.62;2.05;;;;;;;30.69;22.68;100394.57;1777455;79;21177;-79
2023/05/16 08:13:18;;;;;;;9.33;2.08;;;;;;;30.72;22.09;100394.80;1793044;79;21167;-79
2023/05/16 08:16:23;;;;;;;2.00;1.40;;;;;;;30.70;21.68;100383.53;1787846;79;21188;-80
2023/05/16 08:19:29;;;;;;;7.97;1.60;;;;;;;30.66;22.04;100389.53;1778240;79;21165;-79
2023/05/16 08:22:39;;;;;;;7.53;1.87;;;;;;;30.66;22.64;100390.37;1782738;79;21335;-80
2023/05/16 08:25:47;;;;;;;3.90;1.40;;;;;;;30.69;21.77;100391.17;1785035;79;21197;-80
2023/05/16 08:28:52;;;;;;;13.68;1.95;;;;;;;30.78;21.59;100389.35;1784118;79;21213;-80
2023/05/16 08:31:58;;;;;;;8.55;1.95;;;;;;;30.85;20.70;100397.98;1791031;79;21185;-80
2023/05/16 08:34:58;;;;;;;10.40;1.72;;;;;;;30.86;21.63;100391.19;1781082;79;21169;-80
2023/05/16 08:38:02;;;;;;;12.40;2.08;;;;;;;30.98;21.17;100390.13;1781129;79;21169;-80
2023/05/16 08:41:10;;;;;;;6.35;1.90;;;;;;;31.08;22.74;100388.52;1742101;81;21209;-79
2023/05/16 08:44:20;;;;;;;9.93;1.80;;;;;;;31.29;21.46;100383.36;1783879;79;21145;-79
2023/05/16 08:47:26;;;;;;;7.03;2.08;;;;;;;31.38;21.21;100384.86;1791126;78;21225;-79
2023/05/16 08:50:32;;;;;;;6.60;1.72;;;;;;;31.41;20.91;100386.48;1785367;79;21189;-79
2023/05/16 08:53:41;;;;;;;9.55;2.10;;;;;;;31.30;21.65;100380.21;1785056;79;21713;-80
2023/05/16 08:56:49;;;;;;;4.25;1.75;;;;;;;31.43;21.13;100374.86;1789175;79;21295;-79
2023/05/16 08:59:55;;;;;;;7.15;1.37;;;;;;;31.69;22.33;100376.00;1733273;81;21331;-79
2023/05/16 09:03:02;;;;;;;6.00;1.80;;;;;;;31.52;20.08;100375.25;1781088;79;21362;-80
2023/05/16 09:06:07;;;;;;;8.60;2.02;;;;;;;31.41;19.91;100376.59;1775151;79;21185;-80
2023/05/16 09:09:12;;;;;;;8.28;1.75;;;;;;;31.66;19.42;100375.21;1775405;80;21177;-80
2023/05/16 09:12:18;;;;;;;7.78;1.60;;;;;;;31.77;19.31;100374.44;1777372;79;21204;-80
2023/05/16 09:15:25;;;;;;;3.70;1.60;;;;;;;31.76;21.06;100366.53;1781187;79;21228;-80
2023/05/16 09:18:31;;;;;;;7.45;1.85;;;;;;;31.71;21.44;100368.06;1776752;79;21199;-81
2023/05/16 09:21:40;;;;;;;6.95;2.08;;;;;;;31.73;21.41;100368.56;1788997;79;21173;-81
2023/05/16 09:24:48;;;;;;;7.30;2.02;;;;;;;32.03;21.63;100375.55;1785829;79;21161;-80
2023/05/16 09:27:55;;;;;;;12.07;1.82;;;;;;;31.93;19.76;100363.05;1800256;79;21177;-80
2023/05/16 09:31:01;;;;;;;4.62;1.90;;;;;;;31.68;20.27;100358.78;1797218;79;21153;-80
2023/05/16 09:34:07;;;;;;;6.25;2.02;;;;;;;31.68;20.27;100358.78;1791398;79;21509;-80
2023/05/16 09:37:13;;;;;;;3.83;1.90;;;;;;;31.74;21.04;100367.41;1773509;79;21217;-80
2023/05/16 09:40:19;;;;;;;13.28;2.00;;;;;;;31.94;20.95;100364.72;1741317;81;21181;-80
2023/05/16 09:43:28;;;;;;;9.80;1.77;;;;;;;32.13;20.79;100357.49;1772393;79;21185;-80
2023/05/16 09:46:37;;;;;;;8.00;2.00;;;;;;;32.41;20.41;100353.17;1790933;78;21225;-80
2023/05/16 09:49:45;;;;;;;4.75;1.90;;;;;;;32.44;20.37;100352.55;1775606;79;21378;-80
2023/05/16 09:52:51;;;;;;;4.85;1.80;;;;;;;32.52;19.54;100346.95;1791404;79;21158;-80
2023/05/16 09:55:57;;;;;;;7.45;2.33;;;;;;;32.69;20.27;100350.45;1794222;79;21169;-80
2023/05/16 09:59:02;;;;;;;9.13;2.35;;;;;;;32.71;20.00;100352.41;1743478;79;21165;-80
2023/05/16 10:02:08;;;;;;;6.42;1.70;;;;;;;32.81;19.53;100342.22;1793435;77;21192;-80
2023/05/16 10:05:16;;;;;;;16.60;2.45;;;;;;;32.73;19.47;100355.73;1792142;78;21176;-80
2023/05/16 10:08:22;;;;;;;6.58;2.27;;;;;;;32.78;20.24;100354.18;1767347;78;21732;-80
2023/05/16 10:11:28;;;;;;;6.37;2.47;;;;;;;32.82;20.69;100353.80;1801779;78;21190;-80
2023/05/16 10:14:35;;;;;;;13.68;2.67;;;;;;;32.90;20.69;100355.59;1789552;79;21332;-80
2023/05/16 10:17:44;;;;;;;8.28;2.75;;;;;;;33.00;21.00;100352.52;1794950;79;21741;-80
2023/05/16 10:20:52;;;;;;;8.00;2.73;;;;;;;32.94;21.55;100346.16;1801144;79;21236;-79
2023/05/16 10:23:57;;;;;;;12.35;3.05;;;;;;;32.72;20.42;100351.82;1792789;78;21346;-79
2023/05/16 10:27:02;;;;;;;13.90;3.20;;;;;;;32.58;20.14;100351.89;1735365;82;21213;-80
2023/05/16 10:30:08;;;;;;;9.53;3.37;;;;;;;32.67;20.25;100349.95;1743864;81;21763;-80
2023/05/16 10:33:14;;;;;;;8.40;3.15;;;;;;;32.62;19.91;100350.67;1740826;81;21748;-79
2023/05/16 10:36:21;;;;;;;8.38;2.90;;;;;;;32.05;21.45;100349.79;1738179;81;21193;-80
2023/05/16 10:39:26;;;;;;;7.47;2.90;;;;;;;32.35;19.74;100353.02;1728699;81;21190;-80
2023/05/16 10:42:31;;;;;;;7.65;3.30;;;;;;;32.44;19.83;100345.47;1759059;81;21189;-80
2023/05/16 10:45:38;;;;;;;6.33;3.02;;;;;;;32.37;19.96;100342.23;1765761;81;21225;-80
2023/05/16 10:48:45;;;;;;;10.35;2.77;;;;;;;32.27;20.05;100345.55;1744090;81;21279;-80
2023/05/16 10:52:12;;;;;;;6.35;3.12;;;;;;;32.16;19.93;100351.20;1704622;83;21228;-80
2023/05/16 10:55:17;;;;;;;10.20;3.47;;;;;;;32.11;20.15;100345.67;1727565;82;21340;-80
2023/05/16 10:58:46;;;;;;;6.58;3.08;;;;;;;32.04;20.62;100346.67;1728170;82;21205;-80
2023/05/16 11:01:52;;;;;;;11.15;3.58;;;;;;;31.94;20.56;100351.16;1731699;82;21248;-81
2023/05/16 11:04:58;;;;;;;20.08;4.05;;;;;;;31.88;20.79;100350.45;1709060;82;21216;-80
2023/05/16 11:08:13;;;;;;;17.92;3.75;;;;;;;31.88;20.79;100350.45;1750512;82;21799;-80
2023/05/16 11:11:57;;;;;;;13.68;3.58;;;;;;;31.73;21.11;100348.78;1711959;83;21206;-80
2023/05/16 11:15:03;;;;;;;7.75;3.00;;;;;;;31.47;20.46;100348.48;1746738;82;21846;-80
2023/05/16 11:18:21;;;;;;;6.17;3.08;;;;;;;31.21;20.64;100347.31;1710734;82;21159;-80
2023/05/16 11:21:27;;;;;;;8.70;3.05;;;;;;;30.85;22.07;100349.98;1737145;82;21202;-80
2023/05/16 11:24:37;;;;;;;12.68;3.87;;;;;;;31.10;22.52;100345.83;1721646;83;21254;-80
2023/05/16 11:27:45;;;;;;;12.63;3.72;;;;;;;30.97;22.40;100346.09;1756978;81;21257;-80
2023/05/16 11:30:54;;;;;;;8.93;3.70;;;;;;;30.96;22.33;100341.57;1756693;81;21186;-80
2023/05/16 11:33:59;;;;;;;13.03;3.60;;;;;;;30.78;21.46;100339.11;1756859;81;21206;-80
2023/05/16 11:37:07;;;;;;;16.25;3.98;;;;;;;30.61;21.29;100337.41;1761596;81;21248;-81
2023/05/16 11:40:22;;;;;;;15.93;3.67;;;;;;;30.52;21.59;100338.68;1838475;76;22229;-81
2023/05/16 11:43:29;;;;;;;12.30;3.60;;;;;;;30.42;22.17;100337.45;1782979;80;21818;-80
2023/05/16 11:46:34;;;;;;;12.30;3.70;;;;;;;30.37;21.64;100340.36;1786333;79;21189;-80
2023/05/16 11:49:41;;;;;;;13.50;4.20;;;;;;;30.23;21.44;100336.91;1782321;80;21197;-80
2023/05/16 11:52:46;;;;;;;9.43;4.65;;;;;;;30.31;21.90;100340.19;1783958;80;22304;-80
2023/05/16 11:55:52;;;;;;;9.43;4.12;;;;;;;30.25;22.29;100336.05;1804442;79;21181;-80
2023/05/16 11:58:58;;;;;;;11.10;4.25;;;;;;;30.22;21.50;100336.64;1790798;79;21259;-80
2023/05/16 12:02:05;;;;;;;8.93;4.03;;;;;;;30.15;21.45;100342.39;1794000;79;21218;-80
2023/05/16 12:05:19;;;;;;;15.78;3.75;;;;;;;30.11;22.22;100330.84;1783820;80;21167;-80
2023/05/16 12:08:24;;;;;;;13.83;4.08;;;;;;;30.01;21.85;100331.02;1784150;80;21230;-80
2023/05/16 12:11:33;;;;;;;10.35;3.55;;;;;;;30.04;23.02;100326.19;1802891;79;21224;-80
2023/05/16 12:14:39;;;;;;;12.40;3.70;;;;;;;29.95;22.02;100332.24;1814348;79;21239;-79
2023/05/16 12:17:47;;;;;;;20.00;4.15;;;;;;;29.84;22.74;100328.75;1786563;79;21240;-79
2023/05/16 12:20:53;;;;;;;11.90;3.33;;;;;;;29.73;23.64;100332.26;1782753;80;21188;-80
2023/05/16 12:24:03;;;;;;;6.37;3.30;;;;;;;29.78;23.82;100329.40;1783347;80;21259;-79
2023/05/16 12:27:07;;;;;;;21.33;3.45;;;;;;;29.74;24.46;100332.55;1782874;80;21189;-79
2023/05/16 12:30:17;;;;;;;9.15;4.25;;;;;;;29.71;24.71;100329.49;1782261;80;21240;-79
2023/05/16 12:33:23;;;;;;;18.60;3.85;;;;;;;29.83;24.57;100319.16;1783296;80;21840;-79
2023/05/16 12:36:28;;;;;;;11.03;3.47;;;;;;;29.70;24.94;100322.19;1783253;80;21350;-79
2023/05/16 12:39:34;;;;;;;10.53;3.35;;;;;;;29.68;24.68;100318.81;1779127;80;21213;-79
2023/05/16 12:42:40;;;;;;;7.05;3.15;;;;;;;29.31;23.92;100322.37;1770120;81;21240;-79
2023/05/16 12:45:45;;;;;;;9.65;2.35;;;;;;;29.71;24.34;100325.27;1770919;81;21182;-79
2023/05/16 12:48:52;;;;;;;4.87;1.47;;;;;;;29.72;23.51;100317.91;1770239;81;21185;-79
2023/05/16 12:52:04;;;;;;;13.05;2.05;;;;;;;29.72;22.17;100318.48;1769761;81;21185;-79
2023/05/16 12:55:08;;;;;;;7.15;1.87;;;;;;;29.33;21.91;100324.34;1770591;81;21752;-79
2023/05/16 12:58:15;;;;;;;5.55;2.27;;;;;;;29.12;21.41;100325.14;1771158;81;21725;-79
2023/05/16 13:01:21;;;;;;;11.65;2.27;;;;;;;28.68;22.54;100331.20;1771151;81;21233;-79
2023/05/16 13:04:27;;;;;;;8.50;3.12;;;;;;;28.36;22.93;100327.55;1771167;81;21189;-79
2023/05/16 13:07:34;;;;;;;6.10;2.22;;;;;;;28.03;23.07;100332.00;1771029;81;21221;-79
2023/05/16 13:10:40;;;;;;;5.45;2.30;;;;;;;27.92;23.26;100331.23;1770177;81;21264;-79
2023/05/16 13:13:46;;;;;;;3.75;2.17;;;;;;;27.82;23.51;100330.47;1771103;81;21225;-79
2023/05/16 13:16:52;;;;;;;14.30;2.83;;;;;;;27.59;24.37;100337.02;1771315;81;21165;-79
2023/05/16 13:19:57;;;;;;;9.75;2.50;;;;;;;27.30;24.75;100339.69;1770833;81;21261;-79
2023/05/16 13:23:05;;;;;;;11.90;2.70;;;;;;;27.32;25.54;100339.39;1771140;81;21724;-79
2023/05/16 13:26:12;;;;;;;8.58;3.02;;;;;;;27.20;26.07;100336.35;1770060;81;21221;-79
2023/05/16 13:29:20;;;;;;;11.80;2.85;;;;;;;27.25;26.38;100336.33;1771032;81;21224;-79
2023/05/16 13:32:25;;;;;;;7.97;2.80;;;;;;;27.14;26.79;100336.64;1771021;81;21174;-79
2023/05/16 13:35:32;;;;;;;7.60;2.60;;;;;;;26.88;26.83;100337.25;1771057;81;21165;-79
2023/05/16 13:38:38;;;;;;;9.28;2.70;;;;;;;26.87;27.15;100335.02;1771093;81;21170;-79
2023/05/16 13:41:43;;;;;;;12.75;3.35;;;;;;;26.66;27.56;100344.57;1769739;80;21248;-79
2023/05/16 13:44:50;;;;;;;10.60;3.20;;;;;;;26.59;28.00;100344.88;1771347;81;21224;-79
2023/05/16 13:47:56;;;;;;;7.22;3.10;;;;;;;26.54;28.08;100341.20;1771108;81;21717;-79
2023/05/16 13:51:02;;;;;;;8.53;2.77;;;;;;;26.71;28.23;100351.02;1770344;81;21752;-79
2023/05/16 13:54:08;;;;;;;9.03;3.05;;;;;;;26.83;28.28;100341.48;1771171;81;21182;-79
2023/05/16 13:57:07;;;;;;;6.80;2.90;;;;;;;26.16;29.39;100346.21;1769524;81;21221;-79
2023/05/16 14:00:01;;;;;;;4.42;2.35;;;;;;;26.04;29.64;100347.05;1769633;81;21201;-79
2023/05/16 14:03:08;;;;;;;6.35;3.00;;;;;;;26.03;29.87;100346.22;1769624;81;21189;-79
2023/05/16 14:06:13;;;;;;;8.25;3.00;;;;;;;26.33;29.79;100350.16;1771065;81;21181;-79
2023/05/16 14:09:19;;;;;;;5.58;3.12;;;;;;;26.11;30.07;100344.28;1771072;81;21189;-79
2023/05/16 14:12:25;;;;;;;5.90;3.37;;;;;;;26.18;30.16;100345.39;1769438;81;21193;-79
2023/05/16 14:15:31;;;;;;;25.45;3.62;;;;;;;26.16;30.53;100346.21;1770997;81;21142;-79
2023/05/16 14:18:38;;;;;;;9.35;3.27;;;;;;;26.21;30.69;100335.03;1769533;81;21174;-79
2023/05/16 14:21:44;;;;;;;12.93;3.30;;;;;;;26.11;30.83;100333.59;1770053;81;21233;-79
2023/05/16 14:24:50;;;;;;;7.67;3.30;;;;;;;26.04;31.34;100331.64;1769604;81;21181;-79